sensor_id;sensor_type;location;lat;lon;timestamp;pressure;altitude;pressure_sealevel;temperature;humidity
64713;BME280;51140;45.340;5.980;2023-01-26T00:02:00;98980.97;;;0.51;100.00
64713;BME280;51140;45.340;5.980;2023-01-26T00:04:25;98982.69;;;0.54;100.00
64713;BME280;51140;45.340;5.980;2023-01-26T00:06:51;98994.66;;;0.53;100.00
64713;BME280;51140;45.340;5.980;2023-01-26T00:09:16;99004.91;;;0.55;100.00
64713;BME280;51140;45.340;5.980;2023-01-26T00:11:42;98974.16;;;0.52;100.00
64713;BME280;51140;45.340;5.980;2023-01-26T00:14:07;98970.72;;;0.47;100.00
64713;BME280;51140;45.340;5.980;2023-01-26T00:16:32;98975.00;;;0.52;100.00
64713;BME280;51140;45.340;5.980;2023-01-26T00:18:58;98967.31;;;0.57;100.00
64713;BME280;51140;45.340;5.980;2023-01-26T00:21:23;98963.88;;;0.52;100.00
64713;BME280;51140;45.340;5.980;2023-01-26T00:23:50;98963.88;;;0.49;100.00
64713;BME280;51140;45.340;5.980;2023-01-26T00:26:21;98953.63;;;0.50;100.00
64713;BME280;51140;45.340;5.980;2023-01-26T00:28:47;98930.56;;;0.55;100.00
64713;BME280;51140;45.340;5.980;2023-01-26T00:31:16;98916.03;;;0.57;100.00
64713;BME280;51140;45.340;5.980;2023-01-26T00:33:41;98899.81;;;0.56;100.00
64713;BME280;51140;45.340;5.980;2023-01-26T00:36:08;98899.81;;;0.58;100.00
64713;BME280;51140;45.340;5.980;2023-01-26T00:38:34;98909.22;;;0.51;100.00
64713;BME280;51140;45.340;5.980;2023-01-26T00:40:59;98914.31;;;0.47;100.00
64713;BME280;51140;45.340;5.980;2023-01-26T00:43:25;98904.94;;;0.50;100.00
64713;BME280;51140;45.340;5.980;2023-01-26T00:45:50;98921.16;;;0.48;100.00
64713;BME280;51140;45.340;5.980;2023-01-26T00:48:16;98934.84;;;0.42;100.00
64713;BME280;51140;45.340;5.980;2023-01-26T00:50:41;98934.84;;;0.42;100.00
64713;BME280;51140;45.340;5.980;2023-01-26T00:53:08;98942.53;;;0.42;100.00
64713;BME280;51140;45.340;5.980;2023-01-26T00:55:33;98955.34;;;0.45;100.00
64713;BME280;51140;45.340;5.980;2023-01-26T00:58:00;98952.78;;;0.48;100.00
64713;BME280;51140;45.340;5.980;2023-01-26T01:00:25;98956.16;;;0.37;100.00
64713;BME280;51140;45.340;5.980;2023-01-26T01:02:51;98957.00;;;0.34;100.00
64713;BME280;51140;45.340;5.980;2023-01-26T01:05:16;98965.53;;;0.30;100.00
64713;BME280;51140;45.340;5.980;2023-01-26T01:07:41;98959.56;;;0.32;100.00
64713;BME280;51140;45.340;5.980;2023-01-26T01:10:07;98959.59;;;0.40;100.00
64713;BME280;51140;45.340;5.980;2023-01-26T01:12:33;98964.75;;;0.42;100.00
64713;BME280;51140;45.340;5.980;2023-01-26T01:14:59;98967.31;;;0.42;100.00
64713;BME280;51140;45.340;5.980;2023-01-26T01:17:24;98963.88;;;0.41;100.00
64713;BME280;51140;45.340;5.980;2023-01-26T01:19:50;98964.75;;;0.43;100.00
64713;BME280;51140;45.340;5.980;2023-01-26T01:22:15;98951.91;;;0.42;100.00
64713;BME280;51140;45.340;5.980;2023-01-26T01:24:41;98954.44;;;0.31;100.00
64713;BME280;51140;45.340;5.980;2023-01-26T01:27:06;98957.88;;;0.38;100.00
64713;BME280;51140;45.340;5.980;2023-01-26T01:29:31;98949.31;;;0.37;100.00
64713;BME280;51140;45.340;5.980;2023-01-26T01:31:57;98963.00;;;0.35;100.00
64713;BME280;51140;45.340;5.980;2023-01-26T01:34:23;98968.94;;;0.26;100.00
64713;BME280;51140;45.340;5.980;2023-01-26T01:36:48;98974.09;;;0.29;100.00
64713;BME280;51140;45.340;5.980;2023-01-26T01:39:13;98959.56;;;0.31;100.00
64713;BME280;51140;45.340;5.980;2023-01-26T01:41:39;98933.94;;;0.39;100.00
64713;BME280;51140;45.340;5.980;2023-01-26T01:44:33;98925.44;;;0.41;100.00
64713;BME280;51140;45.340;5.980;2023-01-26T01:47:15;98922.03;;;0.41;100.00
64713;BME280;51140;45.340;5.980;2023-01-26T01:49:47;98906.59;;;0.36;100.00
64713;BME280;51140;45.340;5.980;2023-01-26T01:52:23;98889.53;;;0.32;100.00
64713;BME280;51140;45.340;5.980;2023-01-26T01:54:57;98868.16;;;0.35;100.00
64713;BME280;51140;45.340;5.980;2023-01-26T01:57:27;98864.75;;;0.37;100.00
64713;BME280;51140;45.340;5.980;2023-01-26T02:00:05;98862.19;;;0.39;100.00
64713;BME280;51140;45.340;5.980;2023-01-26T02:02:31;98860.47;;;0.38;100.00
64713;BME280;51140;45.340;5.980;2023-01-26T02:05:01;98868.16;;;0.39;100.00
64713;BME280;51140;45.340;5.980;2023-01-26T02:07:29;98861.34;;;0.30;100.00
64713;BME280;51140;45.340;5.980;2023-01-26T02:09:57;98841.69;;;0.25;100.00
64713;BME280;51140;45.340;5.980;2023-01-26T02:12:42;98851.09;;;0.29;100.00
64713;BME280;51140;45.340;5.980;2023-01-26T02:15:08;98843.38;;;0.37;100.00
64713;BME280;51140;45.340;5.980;2023-01-26T02:17:34;98835.69;;;0.37;100.00
64713;BME280;51140;45.340;5.980;2023-01-26T02:27:58;98849.38;;;0.29;100.00
64713;BME280;51140;45.340;5.980;2023-01-26T02:30:26;98857.91;;;0.31;100.00
64713;BME280;51140;45.340;5.980;2023-01-26T02:32:52;98855.34;;;0.33;100.00
64713;BME280;51140;45.340;5.980;2023-01-26T02:35:17;98839.97;;;0.36;100.00
64713;BME280;51140;45.340;5.980;2023-01-26T02:37:43;98834.84;;;0.27;100.00
64713;BME280;51140;45.340;5.980;2023-01-26T02:40:17;98833.16;;;0.24;100.00
64713;BME280;51140;45.340;5.980;2023-01-26T02:42:45;98846.81;;;0.22;100.00
64713;BME280;51140;45.340;5.980;2023-01-26T02:45:14;98868.16;;;0.21;100.00
64713;BME280;51140;45.340;5.980;2023-01-26T02:47:40;98875.00;;;0.23;100.00
64713;BME280;51140;45.340;5.980;2023-01-26T02:50:09;98865.59;;;0.15;100.00
64713;BME280;51140;45.340;5.980;2023-01-26T02:52:34;98867.31;;;0.20;100.00
64713;BME280;51140;45.340;5.980;2023-01-26T02:55:00;98851.94;;;0.25;100.00
64713;BME280;51140;45.340;5.980;2023-01-26T02:57:44;98834.84;;;0.30;100.00
64713;BME280;51140;45.340;5.980;2023-01-26T03:00:16;98837.41;;;0.22;100.00
64713;BME280;51140;45.340;5.980;2023-01-26T03:02:43;98850.22;;;0.16;100.00
64713;BME280;51140;45.340;5.980;2023-01-26T03:05:09;98849.38;;;0.19;100.00
64713;BME280;51140;45.340;5.980;2023-01-26T03:07:34;98857.91;;;0.19;100.00
64713;BME280;51140;45.340;5.980;2023-01-26T03:10:00;98846.81;;;0.20;100.00
64713;BME280;51140;45.340;5.980;2023-01-26T03:12:26;98832.28;;;0.21;100.00
64713;BME280;51140;45.340;5.980;2023-01-26T03:14:52;98841.69;;;0.29;100.00
64713;BME280;51140;45.340;5.980;2023-01-26T03:17:36;98839.13;;;0.26;100.00
64713;BME280;51140;45.340;5.980;2023-01-26T03:20:03;98855.34;;;0.18;100.00
64713;BME280;51140;45.340;5.980;2023-01-26T03:22:47;98851.94;;;0.23;100.00
64713;BME280;51140;45.340;5.980;2023-01-26T03:25:39;98837.41;;;0.22;100.00
64713;BME280;51140;45.340;5.980;2023-01-26T03:28:23;98851.94;;;0.16;100.00
64713;BME280;51140;45.340;5.980;2023-01-26T03:30:49;98857.06;;;0.16;100.00
64713;BME280;51140;45.340;5.980;2023-01-26T03:33:16;98835.72;;;0.21;100.00
64713;BME280;51140;45.340;5.980;2023-01-26T03:35:41;98856.22;;;0.21;100.00
64713;BME280;51140;45.340;5.980;2023-01-26T03:38:07;98864.75;;;0.22;100.00
64713;BME280;51140;45.340;5.980;2023-01-26T03:40:32;98859.63;;;0.13;100.00
64713;BME280;51140;45.340;5.980;2023-01-26T03:43:16;98857.91;;;0.18;100.00
64713;BME280;51140;45.340;5.980;2023-01-26T03:46:04;98844.25;;;0.20;100.00
64713;BME280;51140;45.340;5.980;2023-01-26T03:48:49;98823.75;;;0.19;100.00
64713;BME280;51140;45.340;5.980;2023-01-26T03:51:32;98820.34;;;0.17;100.00
64713;BME280;51140;45.340;5.980;2023-01-26T03:54:16;98834.00;;;0.17;100.00
64713;BME280;51140;45.340;5.980;2023-01-26T03:57:00;98810.94;;;0.13;100.00
64713;BME280;51140;45.340;5.980;2023-01-26T03:59:26;98814.34;;;0.19;100.00
64713;BME280;51140;45.340;5.980;2023-01-26T04:02:08;98815.22;;;0.24;100.00
64713;BME280;51140;45.340;5.980;2023-01-26T04:04:52;98812.66;;;0.18;100.00
64713;BME280;51140;45.340;5.980;2023-01-26T04:07:36;98786.19;;;0.19;100.00
64713;BME280;51140;45.340;5.980;2023-01-26T04:10:20;98774.22;;;0.21;100.00
64713;BME280;51140;45.340;5.980;2023-01-26T04:12:45;98778.50;;;0.22;100.00
64713;BME280;51140;45.340;5.980;2023-01-26T04:15:29;98792.16;;;0.20;100.00
64713;BME280;51140;45.340;5.980;2023-01-26T04:18:13;98799.84;;;0.21;100.00
64713;BME280;51140;45.340;5.980;2023-01-26T04:20:57;98788.72;;;0.24;100.00
64713;BME280;51140;45.340;5.980;2023-01-26T04:23:44;98778.47;;;0.30;100.00
64713;BME280;51140;45.340;5.980;2023-01-26T04:26:09;98752.88;;;0.22;100.00
64713;BME280;51140;45.340;5.980;2023-01-26T04:28:34;98731.50;;;0.23;100.00
64713;BME280;51140;45.340;5.980;2023-01-26T04:31:01;98720.41;;;0.20;100.00
64713;BME280;51140;45.340;5.980;2023-01-26T04:33:28;98707.59;;;0.20;100.00
64713;BME280;51140;45.340;5.980;2023-01-26T04:35:54;98694.78;;;0.23;100.00
64713;BME280;51140;45.340;5.980;2023-01-26T04:38:19;98675.13;;;0.26;100.00
64713;BME280;51140;45.340;5.980;2023-01-26T04:40:52;98658.06;;;0.25;100.00
64713;BME280;51140;45.340;5.980;2023-01-26T04:43:17;98664.91;;;0.25;100.00
64713;BME280;51140;45.340;5.980;2023-01-26T04:45:42;98681.13;;;0.22;100.00
64713;BME280;51140;45.340;5.980;2023-01-26T04:48:08;98664.91;;;0.16;100.00
64713;BME280;51140;45.340;5.980;2023-01-26T04:50:33;98654.66;;;0.16;100.00
64713;BME280;51140;45.340;5.980;2023-01-26T04:52:58;98629.91;;;0.19;100.00
64713;BME280;51140;45.340;5.980;2023-01-26T04:55:24;98617.91;;;0.26;100.00
64713;BME280;51140;45.340;5.980;2023-01-26T04:57:49;98611.09;;;0.22;100.00
64713;BME280;51140;45.340;5.980;2023-01-26T05:00:14;98593.19;;;0.19;100.00
64713;BME280;51140;45.340;5.980;2023-01-26T05:02:40;98632.50;;;0.09;100.00
64713;BME280;51140;45.340;5.980;2023-01-26T05:05:06;98630.78;;;0.14;100.00
64713;BME280;51140;45.340;5.980;2023-01-26T05:07:31;98626.50;;;0.10;100.00
64713;BME280;51140;45.340;5.980;2023-01-26T05:09:56;98600.03;;;0.12;100.00
64713;BME280;51140;45.340;5.980;2023-01-26T05:12:22;98600.00;;;0.18;100.00
64713;BME280;51140;45.340;5.980;2023-01-26T05:14:59;98610.28;;;0.15;100.00
64713;BME280;51140;45.340;5.980;2023-01-26T05:17:25;98620.53;;;0.12;100.00
64713;BME280;51140;45.340;5.980;2023-01-26T05:19:50;98608.59;;;0.10;100.00
64713;BME280;51140;45.340;5.980;2023-01-26T05:22:15;98611.97;;;0.16;100.00
64713;BME280;51140;45.340;5.980;2023-01-26T05:24:41;98612.81;;;0.21;100.00
64713;BME280;51140;45.340;5.980;2023-01-26T05:27:06;98614.53;;;0.19;100.00
64713;BME280;51140;45.340;5.980;2023-01-26T05:29:50;98594.88;;;0.18;100.00
64713;BME280;51140;45.340;5.980;2023-01-26T05:32:16;98590.63;;;0.16;100.00
64713;BME280;51140;45.340;5.980;2023-01-26T05:34:42;98574.41;;;0.17;100.00
64713;BME280;51140;45.340;5.980;2023-01-26T05:37:07;98546.19;;;0.23;100.00
64713;BME280;51140;45.340;5.980;2023-01-26T05:39:33;98525.69;;;0.23;100.00
64713;BME280;51140;45.340;5.980;2023-01-26T05:41:58;98509.47;;;0.21;100.00
64713;BME280;51140;45.340;5.980;2023-01-26T05:44:23;98486.44;;;0.21;100.00
64713;BME280;51140;45.340;5.980;2023-01-26T05:46:50;98465.06;;;0.23;100.00
64713;BME280;51140;45.340;5.980;2023-01-26T05:49:15;98476.16;;;0.24;100.00
64713;BME280;51140;45.340;5.980;2023-01-26T05:51:40;98486.41;;;0.24;100.00
64713;BME280;51140;45.340;5.980;2023-01-26T05:54:06;98477.88;;;0.23;100.00
64713;BME280;51140;45.340;5.980;2023-01-26T05:56:31;98465.91;;;0.24;100.00
64713;BME280;51140;45.340;5.980;2023-01-26T05:58:56;98443.72;;;0.23;100.00
64713;BME280;51140;45.340;5.980;2023-01-26T06:01:22;98436.00;;;0.26;100.00
64713;BME280;51140;45.340;5.980;2023-01-26T06:03:47;98418.09;;;0.24;100.00
64713;BME280;51140;45.340;5.980;2023-01-26T06:06:12;98422.34;;;0.24;100.00
64713;BME280;51140;45.340;5.980;2023-01-26T06:08:38;98442.00;;;0.22;100.00
64713;BME280;51140;45.340;5.980;2023-01-26T06:11:03;98450.56;;;0.18;100.00
64713;BME280;51140;45.340;5.980;2023-01-26T06:13:29;98445.47;;;0.16;100.00
64713;BME280;51140;45.340;5.980;2023-01-26T06:15:54;98457.41;;;0.17;100.00
64713;BME280;51140;45.340;5.980;2023-01-26T06:18:19;98469.38;;;0.17;100.00
64713;BME280;51140;45.340;5.980;2023-01-26T06:20:45;98442.91;;;0.15;100.00
64713;BME280;51140;45.340;5.980;2023-01-26T06:23:10;98424.94;;;0.21;100.00
64713;BME280;51140;45.340;5.980;2023-01-26T06:25:39;98411.28;;;0.19;100.00
64713;BME280;51140;45.340;5.980;2023-01-26T06:28:05;98401.94;;;0.15;100.00
64713;BME280;51140;45.340;5.980;2023-01-26T06:30:30;98407.03;;;0.18;100.00
64713;BME280;51140;45.340;5.980;2023-01-26T06:32:57;98381.41;;;0.16;100.00
64713;BME280;51140;45.340;5.980;2023-01-26T06:35:22;98373.75;;;0.15;100.00
64713;BME280;51140;45.340;5.980;2023-01-26T06:37:48;98377.13;;;0.20;100.00
64713;BME280;51140;45.340;5.980;2023-01-26T06:40:14;98374.56;;;0.18;100.00
64713;BME280;51140;45.340;5.980;2023-01-26T06:42:46;98389.09;;;0.18;100.00
64713;BME280;51140;45.340;5.980;2023-01-26T06:45:12;98390.78;;;0.20;100.00
64713;BME280;51140;45.340;5.980;2023-01-26T06:47:43;98379.72;;;0.14;100.00
64713;BME280;51140;45.340;5.980;2023-01-26T06:50:09;98375.44;;;0.17;100.00
64713;BME280;51140;45.340;5.980;2023-01-26T06:52:35;98394.22;;;0.19;100.00
64713;BME280;51140;45.340;5.980;2023-01-26T06:55:02;98377.97;;;0.20;100.00
64713;BME280;51140;45.340;5.980;2023-01-26T06:57:27;98390.81;;;0.16;100.00
64713;BME280;51140;45.340;5.980;2023-01-26T06:59:53;98377.13;;;0.18;100.00
64713;BME280;51140;45.340;5.980;2023-01-26T07:02:20;98365.19;;;0.19;100.00
64713;BME280;51140;45.340;5.980;2023-01-26T07:04:47;98348.91;;;0.23;100.00
64713;BME280;51140;45.340;5.980;2023-01-26T07:07:13;98353.16;;;0.25;100.00
64713;BME280;51140;45.340;5.980;2023-01-26T07:09:38;98338.66;;;0.24;100.00
64713;BME280;51140;45.340;5.980;2023-01-26T07:12:04;98328.41;;;0.24;100.00
64713;BME280;51140;45.340;5.980;2023-01-26T07:14:31;98328.41;;;0.24;100.00
64713;BME280;51140;45.340;5.980;2023-01-26T07:16:56;98311.31;;;0.25;100.00
64713;BME280;51140;45.340;5.980;2023-01-26T07:19:22;98292.50;;;0.27;100.00
64713;BME280;51140;45.340;5.980;2023-01-26T07:21:47;98270.31;;;0.28;100.00
64713;BME280;51140;45.340;5.980;2023-01-26T07:24:13;98265.16;;;0.31;100.00
64713;BME280;51140;45.340;5.980;2023-01-26T07:26:38;98245.53;;;0.30;100.00
64713;BME280;51140;45.340;5.980;2023-01-26T07:29:04;98235.28;;;0.30;100.00
64713;BME280;51140;45.340;5.980;2023-01-26T07:31:29;98251.50;;;0.30;100.00
64713;BME280;51140;45.340;5.980;2023-01-26T07:33:54;98257.47;;;0.29;100.00
64713;BME280;51140;45.340;5.980;2023-01-26T07:36:20;98261.75;;;0.29;100.00
64713;BME280;51140;45.340;5.980;2023-01-26T07:38:46;98259.16;;;0.32;100.00
64713;BME280;51140;45.340;5.980;2023-01-26T07:41:11;98265.97;;;0.35;100.00
64713;BME280;51140;45.340;5.980;2023-01-26T07:43:37;98269.41;;;0.34;100.00
64713;BME280;51140;45.340;5.980;2023-01-26T07:46:04;98305.25;;;0.35;100.00
64713;BME280;51140;45.340;5.980;2023-01-26T07:48:30;98309.53;;;0.33;100.00
64713;BME280;51140;45.340;5.980;2023-01-26T07:51:00;98279.63;;;0.37;100.00
64713;BME280;51140;45.340;5.980;2023-01-26T07:53:26;98258.25;;;0.39;100.00
64713;BME280;51140;45.340;5.980;2023-01-26T07:55:54;98244.59;;;0.37;100.00
64713;BME280;51140;45.340;5.980;2023-01-26T07:58:20;98236.91;;;0.40;100.00
64713;BME280;51140;45.340;5.980;2023-01-26T08:00:45;98228.34;;;0.41;100.00
64713;BME280;51140;45.340;5.980;2023-01-26T08:03:12;98218.97;;;0.40;100.00
64713;BME280;51140;45.340;5.980;2023-01-26T08:05:37;98203.56;;;0.43;100.00
64713;BME280;51140;45.340;5.980;2023-01-26T08:08:03;98193.28;;;0.45;100.00
64713;BME280;51140;45.340;5.980;2023-01-26T08:10:29;98191.59;;;0.45;100.00
64713;BME280;51140;45.340;5.980;2023-01-26T08:12:59;98191.56;;;0.47;100.00
64713;BME280;51140;45.340;5.980;2023-01-26T08:15:27;98177.06;;;0.46;100.00
64713;BME280;51140;45.340;5.980;2023-01-26T08:17:53;98178.69;;;0.51;100.00
64713;BME280;51140;45.340;5.980;2023-01-26T08:20:19;98193.22;;;0.51;100.00
64713;BME280;51140;45.340;5.980;2023-01-26T08:22:44;98186.31;;;0.57;100.00
64713;BME280;51140;45.340;5.980;2023-01-26T08:25:10;98178.59;;;0.59;100.00
64713;BME280;51140;45.340;5.980;2023-01-26T08:27:35;98193.94;;;0.63;100.00
64713;BME280;51140;45.340;5.980;2023-01-26T08:30:01;98194.81;;;0.61;100.00
64713;BME280;51140;45.340;5.980;2023-01-26T08:32:28;98193.13;;;0.60;100.00
64713;BME280;51140;45.340;5.980;2023-01-26T08:34:54;98189.69;;;0.59;100.00
64713;BME280;51140;45.340;5.980;2023-01-26T08:37:19;98198.25;;;0.58;100.00
64713;BME280;51140;45.340;5.980;2023-01-26T08:39:45;98191.41;;;0.59;100.00
64713;BME280;51140;45.340;5.980;2023-01-26T08:42:10;98200.81;;;0.58;100.00
64713;BME280;51140;45.340;5.980;2023-01-26T08:44:35;98207.66;;;0.58;100.00
64713;BME280;51140;45.340;5.980;2023-01-26T08:47:01;98207.59;;;0.62;100.00
64713;BME280;51140;45.340;5.980;2023-01-26T08:49:26;98216.97;;;0.65;100.00
64713;BME280;51140;45.340;5.980;2023-01-26T08:51:52;98228.09;;;0.66;100.00
64713;BME280;51140;45.340;5.980;2023-01-26T08:54:17;98242.59;;;0.67;100.00
64713;BME280;51140;45.340;5.980;2023-01-26T08:56:42;98252.00;;;0.68;100.00
64713;BME280;51140;45.340;5.980;2023-01-26T08:59:08;98269.91;;;0.69;100.00
64713;BME280;51140;45.340;5.980;2023-01-26T09:01:33;98275.03;;;0.69;100.00
64713;BME280;51140;45.340;5.980;2023-01-26T09:03:59;98283.56;;;0.71;100.00
64713;BME280;51140;45.340;5.980;2023-01-26T09:06:25;98282.75;;;0.68;100.00
64713;BME280;51140;45.340;5.980;2023-01-26T09:08:52;98290.38;;;0.74;100.00
64713;BME280;51140;45.340;5.980;2023-01-26T09:11:17;98292.09;;;0.72;100.00
64713;BME280;51140;45.340;5.980;2023-01-26T09:13:43;98295.53;;;0.72;100.00
64713;BME280;51140;45.340;5.980;2023-01-26T09:16:14;98300.66;;;0.71;100.00
64713;BME280;51140;45.340;5.980;2023-01-26T09:18:43;98305.81;;;0.69;100.00
64713;BME280;51140;45.340;5.980;2023-01-26T09:21:08;98311.81;;;0.67;100.00
64713;BME280;51140;45.340;5.980;2023-01-26T09:23:34;98294.78;;;0.59;100.00
64713;BME280;51140;45.340;5.980;2023-01-26T09:26:00;98296.44;;;0.67;100.00
64713;BME280;51140;45.340;5.980;2023-01-26T09:28:26;98292.97;;;0.71;100.00
64713;BME280;51140;45.340;5.980;2023-01-26T09:30:51;98294.66;;;0.72;100.00
64713;BME280;51140;45.340;5.980;2023-01-26T09:33:17;98286.13;;;0.73;100.00
64713;BME280;51140;45.340;5.980;2023-01-26T09:35:42;98294.66;;;0.72;100.00
64713;BME280;51140;45.340;5.980;2023-01-26T09:38:07;98291.31;;;0.67;100.00
64713;BME280;51140;45.340;5.980;2023-01-26T09:40:37;98294.69;;;0.69;100.00
64713;BME280;51140;45.340;5.980;2023-01-26T09:46:01;98274.13;;;0.75;100.00
64713;BME280;51140;45.340;5.980;2023-01-26T09:48:33;98275.84;;;0.73;100.00
64713;BME280;51140;45.340;5.980;2023-01-26T09:51:04;98273.25;;;0.76;100.00
64713;BME280;51140;45.340;5.980;2023-01-26T09:53:43;98264.75;;;0.72;100.00
64713;BME280;51140;45.340;5.980;2023-01-26T09:56:16;98257.88;;;0.76;100.00
64713;BME280;51140;45.340;5.980;2023-01-26T09:58:45;98255.28;;;0.77;100.00
64713;BME280;51140;45.340;5.980;2023-01-26T10:01:17;98244.09;;;0.86;100.00
64713;BME280;51140;45.340;5.980;2023-01-26T10:03:50;98233.91;;;0.78;100.00
64713;BME280;51140;45.340;5.980;2023-01-26T10:06:25;98233.94;;;0.75;100.00
64713;BME280;51140;45.340;5.980;2023-01-26T10:08:53;98223.69;;;0.77;100.00
64713;BME280;51140;45.340;5.980;2023-01-26T10:11:27;98217.72;;;0.75;100.00
64713;BME280;51140;45.340;5.980;2023-01-26T10:13:59;98222.72;;;0.87;100.00
64713;BME280;51140;45.340;5.980;2023-01-26T10:16:26;98220.91;;;0.95;100.00
64713;BME280;51140;45.340;5.980;2023-01-26T10:19:05;98220.88;;;0.98;100.00
64713;BME280;51140;45.340;5.980;2023-01-26T10:21:37;98219.13;;;1.00;100.00
64713;BME280;51140;45.340;5.980;2023-01-26T10:24:04;98213.13;;;1.01;100.00
64713;BME280;51140;45.340;5.980;2023-01-26T10:26:31;98205.44;;;1.01;100.00
64713;BME280;51140;45.340;5.980;2023-01-26T10:28:58;98194.31;;;1.02;100.00
64713;BME280;51140;45.340;5.980;2023-01-26T10:31:26;98200.28;;;1.04;100.00
64713;BME280;51140;45.340;5.980;2023-01-26T10:34:01;98175.47;;;1.05;100.00
64713;BME280;51140;45.340;5.980;2023-01-26T10:36:33;98176.19;;;1.14;100.00
64713;BME280;51140;45.340;5.980;2023-01-26T10:39:04;98165.91;;;1.16;100.00
64713;BME280;51140;45.340;5.980;2023-01-26T10:41:30;98165.13;;;1.09;100.00
64713;BME280;51140;45.340;5.980;2023-01-26T10:44:00;98153.13;;;1.11;100.00
64713;BME280;51140;45.340;5.980;2023-01-26T10:46:30;98146.38;;;1.06;100.00
64713;BME280;51140;45.340;5.980;2023-01-26T10:49:23;98141.41;;;0.95;100.00
64713;BME280;51140;45.340;5.980;2023-01-26T10:52:25;98135.44;;;0.93;100.00
64713;BME280;51140;45.340;5.980;2023-01-26T10:55:09;98144.63;;;1.08;100.00
64713;BME280;51140;45.340;5.980;2023-01-26T10:57:37;98141.22;;;1.07;100.00
64713;BME280;51140;45.340;5.980;2023-01-26T11:00:06;98143.78;;;1.07;100.00
64713;BME280;51140;45.340;5.980;2023-01-26T11:02:34;98147.09;;;1.15;100.00
64713;BME280;51140;45.340;5.980;2023-01-26T11:05:19;98132.69;;;1.07;100.00
64713;BME280;51140;45.340;5.980;2023-01-26T11:07:47;98129.41;;;0.97;100.00
64713;BME280;51140;45.340;5.980;2023-01-26T11:10:35;98120.00;;;0.96;100.00
64713;BME280;51140;45.340;5.980;2023-01-26T11:13:18;98118.16;;;1.06;100.00
64713;BME280;51140;45.340;5.980;2023-01-26T11:16:02;98113.84;;;1.09;100.00
64713;BME280;51140;45.340;5.980;2023-01-26T11:21:24;98102.84;;;1.01;100.00
64713;BME280;51140;45.340;5.980;2023-01-26T11:27:08;98101.19;;;0.97;100.00
64713;BME280;51140;45.340;5.980;2023-01-26T11:38:34;98115.47;;;1.13;100.00
64713;BME280;51140;45.340;5.980;2023-01-26T11:41:29;98105.94;;;1.23;100.00
64713;BME280;51140;45.340;5.980;2023-01-26T11:44:03;98105.09;;;1.24;100.00
64713;BME280;51140;45.340;5.980;2023-01-26T11:55:13;98088.09;;;1.15;100.00
64713;BME280;51140;45.340;5.980;2023-01-26T11:57:40;98102.56;;;1.19;100.00
64713;BME280;51140;45.340;5.980;2023-01-26T12:02:49;98091.50;;;1.16;100.00
64713;BME280;51140;45.340;5.980;2023-01-26T12:05:22;98085.69;;;1.05;100.00
64713;BME280;51140;45.340;5.980;2023-01-26T12:08:03;98079.63;;;1.09;100.00
64713;BME280;51140;45.340;5.980;2023-01-26T12:10:35;98076.22;;;1.08;100.00
64713;BME280;51140;45.340;5.980;2023-01-26T12:15:52;98086.34;;;1.17;100.00
64713;BME280;51140;45.340;5.980;2023-01-26T12:18:28;98091.41;;;1.23;100.00
64713;BME280;51140;45.340;5.980;2023-01-26T12:21:07;98099.06;;;1.27;100.00
64713;BME280;51140;45.340;5.980;2023-01-26T12:23:46;98097.25;;;1.33;100.00
64713;BME280;51140;45.340;5.980;2023-01-26T12:26:17;98087.78;;;1.35;100.00
64713;BME280;51140;45.340;5.980;2023-01-26T12:28:55;98084.41;;;1.33;100.00
64713;BME280;51140;45.340;5.980;2023-01-26T12:31:46;98070.59;;;1.40;100.00
64713;BME280;51140;45.340;5.980;2023-01-26T12:34:13;98068.94;;;1.38;100.00
64713;BME280;51140;45.340;5.980;2023-01-26T12:36:44;98071.41;;;1.42;100.00
64713;BME280;51140;45.340;5.980;2023-01-26T12:39:16;98060.47;;;1.33;100.00
64713;BME280;51140;45.340;5.980;2023-01-26T12:42:09;98040.88;;;1.27;100.00
64713;BME280;51140;45.340;5.980;2023-01-26T12:44:40;98034.00;;;1.29;100.00
64713;BME280;51140;45.340;5.980;2023-01-26T12:52:30;98020.34;;;1.29;100.00
64713;BME280;51140;45.340;5.980;2023-01-26T12:57:34;98007.44;;;1.32;100.00
64713;BME280;51140;45.340;5.980;2023-01-26T13:00:06;98014.16;;;1.39;100.00
64713;BME280;51140;45.340;5.980;2023-01-26T13:02:44;98020.84;;;1.47;100.00
64713;BME280;51140;45.340;5.980;2023-01-26T13:07:49;98015.53;;;1.56;100.00
64713;BME280;51140;45.340;5.980;2023-01-26T13:13:28;97998.63;;;1.46;100.00
